Aérodrome :
LOGIN :

S'inscrire | Disclaimer

   EN    FR    IT 

 










Légende :    VFR   VFR Marginal   IFR   IFR Intensif   IFR Très Intensif
Visi : 
Plafond : 
>= 8 km
>= 3000ft
5 à 8 km
1000 à 3000 ft
1500m à 5 km
500 à 1000 ft
800 à 1500m
200 à 500 ft
< 800m
< 200 ft
Symboles :   Orages  Brouillard  Fortes neiges  Fortes précipitations  Vent > 20 kt
SIGMETs :   Divers  Orages  Givrage  Turbulence  Onde Orograph.  Cendres Volcan.







- Altitude de l'aérodrome : 218 ft
- Code IATA : LBG
- Voir les cartes d'approche


LFPB - Paris / Le Bourget

DERNIER METAR :
  • 140800Z AUTO 24017G32KT 220V280 9999 FEW025 SCT120 06/02 Q1001 TEMPO BKN014 SCT020TCU

METARs EXPIRÉS :
  • 140730Z AUTO 24015KT 9999 FEW024 SCT130 06/02 Q1001 TEMPO 23020G35KT BKN014 SCT020TCU
  • 140700Z AUTO 24013G24KT CAVOK 05/02 Q1001 TEMPO BKN014 SCT020TCU
  • 140630Z AUTO 24015G25KT CAVOK 06/02 Q1002 TEMPO BKN014 SCT020TCU
  • 140600Z AUTO 24014KT CAVOK 06/02 Q1002 TEMPO BKN014 SCT020TCU BECMG 21015G25KT
  • 140530Z AUTO 24015KT 210V270 CAVOK 06/02 Q1002 TEMPO BKN014 SCT020TCU BECMG 21015G25KT

TAF TAF LFPB
Valide du 14 à 06h jusqu'au 15 à 06h UTC


140500Z 1406/1506 21015G25KT 9999 FEW040
TEMPO 1406/1420 BKN014 SCT020TCU
TEMPO 1409/1417 23020G35KT
PROB40
TEMPO 1412/1417 3000 TSRA BKN008 SCT013CB
PROB30
TEMPO 1414/1415 TSRAGS
PROB40
TEMPO 1503/1506 4000 -SHRA BKN012
ATIS : +33 1 48 62 43 92
Pas de NOTAMs connus pour ce terrain.
2 SIGMETs publiés pour la FIR Paris (LFFF) :
 
Turbulence forte
LFFF SIGMET 5 VALID 140730/140900 LFPW
LFFF PARIS FIR/UIR SEV TURB OBS AT 0730Z NW OF LINE N4900 W00015 - N5100 E00230 SFC/FL060 STNR WKN=
Orages noyés dans la masse
LFFF SIGMET 4 VALID 140625/140830 LFPW
LFFF PARIS FIR/UIR EMBD TS OBS AT 0625Z WI N5000 W00015 - N5100 E00145 - N5000 E00215 - N4915 W00015 - N5000 W00015 TOP FL280 MOV E 40KT NC=



MET'MAP, la Météo Aéronautique d'un coup d'oeil ! - Copyright ORBIFLY Décembre 2007 - Disclaimer

ORBIFLY MET'MAP TEAM :

Programmation & Développement : Alexandra Zaïnal
Conception & Développement : Baudouin d'Aumeries
Co-Programmation & Développement : Marc-Olivier Méhu
Soutien technique & logistique : Manuel Goepfert

Contact : metmap@orbifly.com




SOURCES & CREDITS :

   NOAA